createdAt,value
2023-04-06T00:00:17.514Z,1097.64
2023-04-06T00:01:17.503Z,1097.64
2023-04-06T00:02:14.532Z,1097.64
2023-04-06T00:03:14.511Z,1097.64
2023-04-06T00:04:14.510Z,1097.64
2023-04-06T00:05:14.468Z,1097.64
2023-04-06T00:06:16.057Z,1097.64
2023-04-06T00:07:14.425Z,1097.64
2023-04-06T00:08:14.409Z,1097.64
2023-04-06T00:09:14.402Z,1097.64
2023-04-06T00:10:14.382Z,1097.64
2023-04-06T00:11:14.363Z,1097.64
2023-04-06T00:12:14.425Z,1097.64
2023-04-06T00:13:14.342Z,1097.64
2023-04-06T00:14:14.336Z,1097.64
2023-04-06T00:15:14.327Z,1097.64
2023-04-06T00:16:14.347Z,1097.64
2023-04-06T00:17:14.297Z,1097.64
2023-04-06T00:18:14.333Z,1097.64
2023-04-06T00:19:14.274Z,1097.64
2023-04-06T00:20:17.287Z,1097.64
2023-04-06T00:21:17.230Z,1097.64
2023-04-06T00:22:14.271Z,1097.64
2023-04-06T00:23:14.210Z,1097.64
2023-04-06T00:24:14.281Z,1097.64
2023-04-06T00:25:14.179Z,1097.64
2023-04-06T00:26:14.167Z,1097.64
2023-04-06T00:27:14.149Z,1097.64
2023-04-06T00:28:14.185Z,1097.64
2023-04-06T00:29:14.123Z,1097.64
2023-04-06T00:30:14.174Z,1097.64
2023-04-06T00:31:14.095Z,1097.64
2023-04-06T00:32:14.168Z,1097.64
2023-04-06T00:33:14.138Z,1097.64
2023-04-06T00:34:14.061Z,1097.64
2023-04-06T00:35:14.054Z,1097.64
2023-04-06T00:36:14.133Z,1097.64
2023-04-06T00:37:14.054Z,1097.64
2023-04-06T00:38:14.013Z,1097.64
2023-04-06T00:39:13.991Z,1097.64
2023-04-06T00:40:16.983Z,1097.64
2023-04-06T00:41:17.016Z,1097.64
2023-04-06T00:42:13.995Z,1097.64
2023-04-06T00:43:13.947Z,1097.64
2023-04-06T00:44:13.928Z,1097.64
2023-04-06T00:45:13.910Z,1097.64
2023-04-06T00:46:13.936Z,1097.64
2023-04-06T00:47:13.953Z,1097.64
2023-04-06T00:48:13.876Z,1097.64
2023-04-06T00:49:13.863Z,1097.64
2023-04-06T00:50:13.878Z,1097.64
2023-04-06T00:51:13.852Z,1097.64
2023-04-06T00:52:13.816Z,1097.64
2023-04-06T00:53:13.837Z,1097.64
2023-04-06T00:54:13.809Z,1097.64
2023-04-06T00:55:13.843Z,1097.64
2023-04-06T00:56:13.824Z,1096.36
2023-04-06T00:57:13.765Z,1097.64
2023-04-06T00:58:13.744Z,1097.64
2023-04-06T00:59:13.789Z,1097.64
2023-04-06T01:00:16.717Z,1097.64
2023-04-06T01:01:16.797Z,1097.64
2023-04-06T01:02:13.687Z,1096.36
2023-04-06T01:03:13.739Z,1097.64
2023-04-06T01:04:13.670Z,1097.64
2023-04-06T01:05:13.679Z,1097.64
2023-04-06T01:06:13.672Z,1097.64
2023-04-06T01:07:13.665Z,1097.64
2023-04-06T01:08:13.614Z,1097.64
2023-04-06T01:09:13.606Z,1097.64
2023-04-06T01:10:13.600Z,1097.64
2023-04-06T01:11:13.580Z,1097.64
2023-04-06T01:12:13.606Z,1097.64
2023-04-06T01:13:13.545Z,1097.64
2023-04-06T01:14:13.565Z,1097.64
2023-04-06T01:15:13.527Z,1097.64
2023-04-06T01:16:13.513Z,1096.36
2023-04-06T01:17:13.489Z,1096.36
2023-04-06T01:18:13.559Z,1096.36
2023-04-06T01:19:13.502Z,1096.36
2023-04-06T01:20:16.470Z,1096.36
2023-04-06T01:21:16.477Z,1096.36
2023-04-06T01:22:13.429Z,1096.36
2023-04-06T01:23:13.409Z,1096.36
2023-04-06T01:24:34.453Z,1096.36
2023-04-06T01:25:13.397Z,1096.36
2023-04-06T01:26:13.370Z,1096.36
2023-04-06T01:27:13.367Z,1096.36
2023-04-06T01:28:13.343Z,1096.36
2023-04-06T01:29:13.355Z,1096.36
2023-04-06T01:30:13.376Z,1096.36
2023-04-06T01:31:13.330Z,1096.36
2023-04-06T01:32:13.292Z,1096.36
2023-04-06T01:33:13.306Z,1096.36
2023-04-06T01:34:13.260Z,1096.36
2023-04-06T01:35:13.252Z,1096.36
2023-04-06T01:36:13.285Z,1096.36
2023-04-06T01:37:13.246Z,1096.36
2023-04-06T01:38:13.213Z,1096.36
2023-04-06T01:39:13.203Z,1096.36
2023-04-06T01:40:16.191Z,1096.36
2023-04-06T01:41:16.243Z,1096.36
2023-04-06T01:42:13.156Z,1096.36
2023-04-06T01:43:13.155Z,1096.36
2023-04-06T01:44:13.133Z,1096.36
2023-04-06T01:45:13.123Z,1096.36
2023-04-06T01:46:13.228Z,1096.36
2023-04-06T01:47:13.135Z,1096.36
2023-04-06T01:48:13.080Z,1096.36
2023-04-06T01:49:13.075Z,1096.36
2023-04-06T01:50:13.067Z,1096.36
2023-04-06T01:51:13.054Z,1096.36
2023-04-06T01:52:13.028Z,1096.36
2023-04-06T01:53:13.046Z,1096.36
2023-04-06T01:54:13.011Z,1096.36
2023-04-06T01:55:12.985Z,1096.36
2023-04-06T01:56:12.981Z,1096.36
2023-04-06T01:57:12.964Z,1096.36
2023-04-06T01:58:12.945Z,1096.36
2023-04-06T01:59:13.027Z,1096.36
2023-04-06T02:00:15.917Z,1096.36
2023-04-06T02:01:15.970Z,1096.36
2023-04-06T02:02:12.917Z,1096.36
2023-04-06T02:03:12.946Z,1096.36
2023-04-06T02:04:12.883Z,1096.36
2023-04-06T02:05:12.905Z,1096.36
2023-04-06T02:06:12.835Z,1096.36
2023-04-06T02:07:12.828Z,1096.36
2023-04-06T02:08:12.822Z,1096.36
2023-04-06T02:09:12.812Z,1096.36
2023-04-06T02:10:12.820Z,1096.36
2023-04-06T02:11:12.825Z,1096.36
2023-04-06T02:12:12.762Z,1096.36
2023-04-06T02:13:12.749Z,1096.36
2023-04-06T02:14:12.758Z,1096.36
2023-04-06T02:15:12.731Z,1096.36
2023-04-06T02:16:12.822Z,1096.36
2023-04-06T02:17:12.739Z,1096.36
2023-04-06T02:18:12.696Z,1096.36
2023-04-06T02:19:12.680Z,1096.36
2023-04-06T02:20:15.652Z,1096.36
2023-04-06T02:21:15.649Z,1096.36
2023-04-06T02:22:12.637Z,1096.36
2023-04-06T02:23:12.651Z,1096.36
2023-04-06T02:24:12.602Z,1096.36
2023-04-06T02:25:12.592Z,1096.36
2023-04-06T02:26:12.603Z,1096.36
2023-04-06T02:27:12.581Z,1096.36
2023-04-06T02:28:12.572Z,1096.36
2023-04-06T02:29:12.627Z,1096.36
2023-04-06T02:30:12.536Z,1096.36
2023-04-06T02:31:12.515Z,1096.36
2023-04-06T02:32:12.523Z,1096.36
2023-04-06T02:33:12.502Z,1096.36
2023-04-06T02:34:12.473Z,1096.36
2023-04-06T02:35:12.502Z,1096.36
2023-04-06T02:36:12.463Z,1096.36
2023-04-06T02:37:12.441Z,1096.36
2023-04-06T02:38:12.420Z,1096.36
2023-04-06T02:39:12.418Z,1096.36
2023-04-06T02:40:15.466Z,1096.36
2023-04-06T02:41:15.388Z,1096.36
2023-04-06T02:42:12.370Z,1096.36
2023-04-06T02:43:12.360Z,1096.36
2023-04-06T02:44:12.338Z,1096.36
2023-04-06T02:45:12.334Z,1096.36
2023-04-06T02:46:12.390Z,1096.36
2023-04-06T02:47:12.308Z,1096.36
2023-04-06T02:48:12.293Z,1096.36
2023-04-06T02:49:12.282Z,1096.36
2023-04-06T02:50:12.279Z,1096.36
2023-04-06T02:51:12.262Z,1096.36
2023-04-06T02:52:12.292Z,1096.36
2023-04-06T02:53:12.220Z,1096.36
2023-04-06T02:54:12.218Z,1096.36
2023-04-06T02:55:12.202Z,1096.36
2023-04-06T02:56:12.181Z,1096.36
2023-04-06T02:57:12.178Z,1096.36
2023-04-06T02:58:12.229Z,1096.36
2023-04-06T02:59:12.351Z,1096.36
2023-04-06T03:00:15.131Z,1096.36
2023-04-06T03:01:15.161Z,1096.36
2023-04-06T03:02:12.126Z,1096.36
2023-04-06T03:03:12.179Z,1096.36
2023-04-06T03:04:12.133Z,1096.36
2023-04-06T03:05:12.071Z,1096.36
2023-04-06T03:06:12.061Z,1096.36
2023-04-06T03:07:12.042Z,1096.36
2023-04-06T03:08:12.081Z,1096.36
2023-04-06T03:09:12.027Z,1096.36
2023-04-06T03:10:12.053Z,1096.36
2023-04-06T03:11:12.012Z,1096.36
2023-04-06T03:12:11.991Z,1096.36
2023-04-06T03:13:11.975Z,1096.36
2023-04-06T03:14:11.945Z,1096.36
2023-04-06T03:15:11.940Z,1096.36
2023-04-06T03:16:12.041Z,1096.36
2023-04-06T03:17:11.906Z,1096.36
2023-04-06T03:18:11.916Z,1096.36
2023-04-06T03:19:11.892Z,1096.36
2023-04-06T03:20:14.878Z,1096.36
2023-04-06T03:21:14.936Z,1096.36
2023-04-06T03:22:11.836Z,1096.36
2023-04-06T03:23:11.841Z,1096.36
2023-04-06T03:24:11.812Z,1096.36
2023-04-06T03:25:11.820Z,1096.36
2023-04-06T03:26:11.785Z,1096.36
2023-04-06T03:27:11.829Z,1096.36
2023-04-06T03:28:11.767Z,1096.36
2023-04-06T03:29:11.757Z,1096.36
2023-04-06T03:30:11.743Z,1096.36
2023-04-06T03:31:11.834Z,1096.36
2023-04-06T03:32:11.747Z,1096.36
2023-04-06T03:33:11.779Z,1096.36
2023-04-06T03:34:11.676Z,1096.36
2023-04-06T03:35:11.663Z,1096.36
2023-04-06T03:36:11.664Z,1095.09
2023-04-06T03:37:11.636Z,1095.09
2023-04-06T03:38:11.619Z,1095.09
2023-04-06T03:39:11.683Z,1095.09
2023-04-06T03:40:14.609Z,1095.09
2023-04-06T03:41:14.590Z,1095.09
2023-04-06T03:42:11.572Z,1095.09
2023-04-06T03:43:11.555Z,1095.09
2023-04-06T03:44:11.554Z,1095.09
2023-04-06T03:45:11.579Z,1095.09
2023-04-06T03:46:11.567Z,1095.09
2023-04-06T03:47:11.525Z,1095.09
2023-04-06T03:48:11.493Z,1095.09
2023-04-06T03:49:11.476Z,1095.09
2023-04-06T03:50:11.471Z,1095.09
2023-04-06T03:51:11.482Z,1095.09
2023-04-06T03:52:11.436Z,1095.09
2023-04-06T03:53:11.442Z,1095.09
2023-04-06T03:54:11.428Z,1095.09
2023-04-06T03:55:11.393Z,1095.09
2023-04-06T03:56:11.377Z,1095.09
2023-04-06T03:57:11.521Z,1095.09
2023-04-06T03:58:11.396Z,1095.09
2023-04-06T03:59:11.594Z,1095.09
2023-04-06T04:00:14.325Z,1095.09
2023-04-06T04:01:14.312Z,1095.09
2023-04-06T04:02:11.346Z,1095.09
2023-04-06T04:03:11.521Z,1096.36
2023-04-06T04:04:11.277Z,1096.36
2023-04-06T04:05:11.274Z,1096.36
2023-04-06T04:06:11.267Z,1096.36
2023-04-06T04:07:11.233Z,1096.36
2023-04-06T04:08:11.216Z,1096.36
2023-04-06T04:09:11.330Z,1096.36
2023-04-06T04:10:11.189Z,1096.36
2023-04-06T04:11:11.163Z,1096.36
2023-04-06T04:12:11.157Z,1096.36
2023-04-06T04:13:11.167Z,1096.36
2023-04-06T04:14:11.124Z,1096.36
2023-04-06T04:15:11.152Z,1096.36
2023-04-06T04:16:11.208Z,1096.36
2023-04-06T04:17:11.096Z,1096.36
2023-04-06T04:18:11.085Z,1096.36
2023-04-06T04:19:11.182Z,1096.36
2023-04-06T04:20:14.105Z,1096.36
2023-04-06T04:21:14.037Z,1096.36
2023-04-06T04:22:11.041Z,1096.36
2023-04-06T04:23:10.998Z,1096.36
2023-04-06T04:24:11.041Z,1096.36
2023-04-06T04:25:10.980Z,1096.36
2023-04-06T04:26:11.083Z,1096.36
2023-04-06T04:27:10.950Z,1097.64
2023-04-06T04:28:10.962Z,1096.36
2023-04-06T04:29:11.049Z,1096.36
2023-04-06T04:30:10.921Z,1097.64
2023-04-06T04:31:10.920Z,1097.64
2023-04-06T04:32:11.039Z,1096.36
2023-04-06T04:33:10.865Z,1097.64
2023-04-06T04:34:10.892Z,1097.64
2023-04-06T04:35:10.847Z,1097.64
2023-04-06T04:36:10.835Z,1096.36
2023-04-06T04:37:10.826Z,1097.64
2023-04-06T04:38:10.868Z,1097.64
2023-04-06T04:39:10.869Z,1097.64
2023-04-06T04:40:13.773Z,1097.64
2023-04-06T04:41:13.776Z,1097.64
2023-04-06T04:42:10.769Z,1097.64
2023-04-06T04:43:10.736Z,1097.64
2023-04-06T04:44:10.776Z,1097.64
2023-04-06T04:45:10.711Z,1097.64
2023-04-06T04:46:10.716Z,1097.64
2023-04-06T04:47:10.678Z,1097.64
2023-04-06T04:48:10.685Z,1097.64
2023-04-06T04:49:10.830Z,1097.64
2023-04-06T04:50:10.716Z,1097.64
2023-04-06T04:51:10.625Z,1097.64
2023-04-06T04:52:10.628Z,1097.64
2023-04-06T04:53:10.597Z,1097.64
2023-04-06T04:54:10.588Z,1097.64
2023-04-06T04:55:10.577Z,1097.64
2023-04-06T04:56:10.621Z,1097.64
2023-04-06T04:57:10.542Z,1097.64
2023-04-06T04:58:10.534Z,1097.64
2023-04-06T04:59:10.803Z,1097.64
2023-04-06T05:00:13.528Z,1097.64
2023-04-06T05:01:13.588Z,1097.64
2023-04-06T05:02:10.578Z,1097.64
2023-04-06T05:03:10.562Z,1098.91
2023-04-06T05:04:10.454Z,1098.91
2023-04-06T05:05:10.464Z,1098.91
2023-04-06T05:06:11.578Z,1098.91
2023-04-06T05:07:10.489Z,1098.91
2023-04-06T05:08:10.406Z,1098.91
2023-04-06T05:09:10.589Z,1100.18
2023-04-06T05:10:10.381Z,1100.18
2023-04-06T05:11:10.360Z,1098.91
2023-04-06T05:12:10.358Z,1100.18
2023-04-06T05:13:10.528Z,1100.18
2023-04-06T05:14:10.395Z,1100.18
2023-04-06T05:15:10.417Z,1100.18
2023-04-06T05:16:10.406Z,1100.18
2023-04-06T05:17:10.297Z,1100.18
2023-04-06T05:18:10.371Z,1098.91
2023-04-06T05:19:10.551Z,1098.91
2023-04-06T05:20:13.250Z,1098.91
2023-04-06T05:21:13.248Z,1098.91
2023-04-06T05:22:10.215Z,1098.91
2023-04-06T05:23:10.206Z,1098.91
2023-04-06T05:24:10.197Z,1098.91
2023-04-06T05:25:10.245Z,1098.91
2023-04-06T05:26:10.187Z,1098.91
2023-04-06T05:27:10.147Z,1098.91
2023-04-06T05:28:10.178Z,1097.64
2023-04-06T05:29:10.438Z,1097.64
2023-04-06T05:30:10.109Z,1097.64
2023-04-06T05:31:10.193Z,1097.64
2023-04-06T05:32:10.092Z,1097.64
2023-04-06T05:33:10.145Z,1097.64
2023-04-06T05:34:10.078Z,1097.64
2023-04-06T05:35:10.040Z,1098.91
2023-04-06T05:36:10.030Z,1100.18
2023-04-06T05:37:10.077Z,1100.18
2023-04-06T05:38:10.018Z,1100.18
2023-04-06T05:39:10.243Z,1101.46
2023-04-06T05:40:12.975Z,1101.46
2023-04-06T05:41:12.961Z,1101.46
2023-04-06T05:42:09.997Z,1101.46
2023-04-06T05:43:09.984Z,1101.46
2023-04-06T05:44:09.921Z,1101.46
2023-04-06T05:45:09.909Z,1101.46
2023-04-06T05:46:09.949Z,1100.18
2023-04-06T05:47:09.883Z,1100.18
2023-04-06T05:48:09.904Z,1100.18
2023-04-06T05:49:10.170Z,1100.18
2023-04-06T05:50:09.837Z,1100.18
2023-04-06T05:51:09.828Z,1098.91
2023-04-06T05:52:09.810Z,1098.91
2023-04-06T05:53:09.799Z,1098.91
2023-04-06T05:54:09.781Z,1098.91
2023-04-06T05:55:10.789Z,1098.91
2023-04-06T05:56:09.760Z,1098.91
2023-04-06T05:57:09.747Z,1097.64
2023-04-06T05:58:09.729Z,1097.64
2023-04-06T05:59:09.965Z,1097.64
2023-04-06T06:00:12.760Z,1097.64
2023-04-06T06:01:12.696Z,1097.64
2023-04-06T06:02:09.749Z,1097.64
2023-04-06T06:03:09.724Z,1097.64
2023-04-06T06:04:09.662Z,1097.64
2023-04-06T06:05:09.674Z,1097.64
2023-04-06T06:06:09.692Z,1097.64
2023-04-06T06:07:09.615Z,1097.64
2023-04-06T06:08:09.596Z,1097.64
2023-04-06T06:09:09.674Z,1097.64
2023-04-06T06:10:09.574Z,1097.64
2023-04-06T06:11:09.574Z,1097.64
2023-04-06T06:12:10.170Z,1097.64
2023-04-06T06:13:09.530Z,1097.64
2023-04-06T06:14:09.521Z,1097.64
2023-04-06T06:15:09.516Z,1097.64
2023-04-06T06:16:09.511Z,1097.64
2023-04-06T06:17:09.495Z,1097.64
2023-04-06T06:18:09.580Z,1097.64
2023-04-06T06:19:09.641Z,1097.64
2023-04-06T06:20:12.457Z,1097.64
2023-04-06T06:21:12.432Z,1097.64
2023-04-06T06:22:09.439Z,1097.64
2023-04-06T06:23:09.395Z,1097.64
2023-04-06T06:24:09.457Z,1097.64
2023-04-06T06:25:09.378Z,1097.64
2023-04-06T06:26:09.360Z,1097.64
2023-04-06T06:27:09.338Z,1098.91
2023-04-06T06:28:09.343Z,1097.64
2023-04-06T06:29:09.487Z,1098.91
2023-04-06T06:30:09.350Z,1098.91
2023-04-06T06:31:09.323Z,1098.91
2023-04-06T06:32:09.300Z,1098.91
2023-04-06T06:33:09.316Z,1098.91
2023-04-06T06:34:09.249Z,1098.91
2023-04-06T06:35:09.253Z,1098.91
2023-04-06T06:36:09.261Z,1098.91
2023-04-06T06:37:09.209Z,1098.91
2023-04-06T06:38:09.232Z,1098.91
2023-04-06T06:39:09.451Z,1098.91
2023-04-06T06:40:12.184Z,1098.91
2023-04-06T06:41:12.226Z,1098.91
2023-04-06T06:42:09.184Z,1098.91
2023-04-06T06:43:09.142Z,1098.91
2023-04-06T06:44:09.363Z,1098.91
2023-04-06T06:45:09.106Z,1098.91
2023-04-06T06:46:09.148Z,1098.91
2023-04-06T06:47:09.142Z,1098.91
2023-04-06T06:48:09.111Z,1098.91
2023-04-06T06:49:09.068Z,1098.91
2023-04-06T06:50:09.076Z,1098.91
2023-04-06T06:51:09.022Z,1098.91
2023-04-06T06:52:09.056Z,1098.91
2023-04-06T06:53:09.076Z,1098.91
2023-04-06T06:54:09.307Z,1098.91
2023-04-06T06:55:08.987Z,1098.91
2023-04-06T06:56:08.978Z,1100.18
2023-04-06T06:57:08.947Z,1098.91
2023-04-06T06:58:08.936Z,1098.91
2023-04-06T06:59:09.045Z,1098.91
2023-04-06T07:00:13.099Z,1100.18
2023-04-06T07:01:11.904Z,1098.91
2023-04-06T07:02:08.908Z,1098.91
2023-04-06T07:03:08.951Z,1100.18
2023-04-06T07:04:09.159Z,1100.18
2023-04-06T07:05:23.637Z,1100.18
2023-04-06T07:06:09.825Z,1100.18
2023-04-06T07:07:08.810Z,1100.18
2023-04-06T07:08:08.796Z,1100.18
2023-04-06T07:09:08.825Z,1100.18
2023-04-06T07:10:08.802Z,1100.18
2023-04-06T07:11:08.804Z,1100.18
2023-04-06T07:12:08.748Z,1100.18
2023-04-06T07:13:08.730Z,1100.18
2023-04-06T07:14:09.115Z,1100.18
2023-04-06T07:15:08.720Z,1100.18
2023-04-06T07:16:08.997Z,1100.18
2023-04-06T07:17:08.938Z,1100.18
2023-04-06T07:18:08.814Z,1100.18
2023-04-06T07:19:08.666Z,1100.18
2023-04-06T07:20:11.878Z,1100.18
2023-04-06T07:21:11.629Z,1100.18
2023-04-06T07:22:08.643Z,1100.18
2023-04-06T07:23:08.664Z,1100.18
2023-04-06T07:24:08.930Z,1100.18
2023-04-06T07:25:08.594Z,1100.18
2023-04-06T07:26:08.598Z,1100.18
2023-04-06T07:27:08.546Z,1100.18
2023-04-06T07:28:08.528Z,1100.18
2023-04-06T07:29:08.564Z,1100.18
2023-04-06T07:30:08.516Z,1100.18
2023-04-06T07:31:08.485Z,1100.18
2023-04-06T07:32:08.529Z,1100.18
2023-04-06T07:33:08.506Z,1100.18
2023-04-06T07:34:08.663Z,1100.18
2023-04-06T07:35:08.493Z,1100.18
2023-04-06T07:36:08.508Z,1100.18
2023-04-06T07:37:08.407Z,1100.18
2023-04-06T07:38:08.416Z,1100.18
2023-04-06T07:39:12.368Z,1100.18
2023-04-06T07:40:11.419Z,1100.18
2023-04-06T07:41:11.401Z,1100.18
2023-04-06T07:42:08.343Z,1100.18
2023-04-06T07:43:08.349Z,1100.18
2023-04-06T07:44:08.515Z,1100.18
2023-04-06T07:45:08.304Z,1100.18
2023-04-06T07:46:08.344Z,1100.18
2023-04-06T07:47:08.272Z,1100.18
2023-04-06T07:48:08.377Z,1100.18
2023-04-06T07:49:08.246Z,1100.18
2023-04-06T07:50:08.233Z,1100.18
2023-04-06T07:51:08.218Z,1100.18
2023-04-06T07:52:08.268Z,1100.18
2023-04-06T07:53:08.215Z,1100.18
2023-04-06T07:54:08.375Z,1100.18
2023-04-06T07:55:08.159Z,1100.18
2023-04-06T07:56:08.158Z,1100.18
2023-04-06T07:57:08.197Z,1100.18
2023-04-06T07:58:08.187Z,1100.18
2023-04-06T07:59:08.149Z,1100.18
2023-04-06T08:00:11.101Z,1100.18
2023-04-06T08:01:11.100Z,1100.18
2023-04-06T08:02:08.115Z,1100.18
2023-04-06T08:03:08.237Z,1100.18
2023-04-06T08:04:08.539Z,1100.18
2023-04-06T08:05:08.041Z,1100.18
2023-04-06T08:06:08.016Z,1100.18
2023-04-06T08:07:07.993Z,1101.46
2023-04-06T08:08:08.009Z,1101.46
2023-04-06T08:09:07.968Z,1101.46
2023-04-06T08:10:08.015Z,1101.46
2023-04-06T08:11:07.951Z,1101.46
2023-04-06T08:12:07.938Z,1101.46
2023-04-06T08:13:07.916Z,1101.46
2023-04-06T08:14:08.217Z,1101.46
2023-04-06T08:15:07.893Z,1101.46
2023-04-06T08:16:07.947Z,1101.46
2023-04-06T08:17:07.897Z,1101.46
2023-04-06T08:18:07.854Z,1101.46
2023-04-06T08:19:07.843Z,1101.46
2023-04-06T08:20:10.837Z,1101.46
2023-04-06T08:21:10.870Z,1101.46
2023-04-06T08:22:07.796Z,1101.46
2023-04-06T08:23:07.830Z,1101.46
2023-04-06T08:24:08.026Z,1101.46
2023-04-06T08:25:07.757Z,1101.46
2023-04-06T08:26:07.755Z,1101.46
2023-04-06T08:27:07.783Z,1101.46
2023-04-06T08:28:07.716Z,1101.46
2023-04-06T08:29:07.716Z,1101.46
2023-04-06T08:30:07.696Z,1101.46
2023-04-06T08:31:07.773Z,1101.46
2023-04-06T08:32:07.674Z,1101.46
2023-04-06T08:33:07.786Z,1101.46
2023-04-06T08:34:08.553Z,1101.46
2023-04-06T08:35:07.634Z,1101.46
2023-04-06T08:36:07.640Z,1101.46
2023-04-06T08:37:07.669Z,1101.46
2023-04-06T08:38:07.594Z,1101.46
2023-04-06T08:39:07.628Z,1101.46
2023-04-06T08:40:10.571Z,1101.46
2023-04-06T08:41:10.555Z,1101.46
2023-04-06T08:42:07.529Z,1101.46
2023-04-06T08:43:07.519Z,1101.46
2023-04-06T08:44:07.672Z,1101.46
2023-04-06T08:45:07.552Z,1101.46
2023-04-06T08:46:07.488Z,1101.46
2023-04-06T08:47:07.474Z,1101.46
2023-04-06T08:48:07.530Z,1101.46
2023-04-06T08:49:07.457Z,1101.46
2023-04-06T08:50:07.497Z,1101.46
2023-04-06T08:51:07.469Z,1101.46
2023-04-06T08:52:07.402Z,1101.46
2023-04-06T08:53:07.398Z,1101.46
2023-04-06T08:54:07.690Z,1101.46
2023-04-06T08:55:07.363Z,1101.46
2023-04-06T08:56:07.350Z,1101.46
2023-04-06T08:57:07.391Z,1101.46
2023-04-06T08:58:07.312Z,1101.46
2023-04-06T08:59:07.451Z,1101.46
2023-04-06T09:00:10.298Z,1101.46
2023-04-06T09:01:10.439Z,1101.46
2023-04-06T09:02:07.375Z,1101.46
2023-04-06T09:03:07.499Z,1101.46
2023-04-06T09:04:09.233Z,1101.46
2023-04-06T09:05:08.183Z,1101.46
2023-04-06T09:06:07.211Z,1101.46
2023-04-06T09:07:07.190Z,1101.46
2023-04-06T09:08:07.208Z,1101.46
2023-04-06T09:09:07.215Z,1101.46
2023-04-06T09:10:07.163Z,1101.46
2023-04-06T09:11:07.138Z,1101.46
2023-04-06T09:12:07.127Z,1101.46
2023-04-06T09:13:07.108Z,1101.46
2023-04-06T09:14:07.317Z,1101.46
2023-04-06T09:15:07.146Z,1101.46
2023-04-06T09:16:07.186Z,1101.46
2023-04-06T09:17:07.091Z,1101.46
2023-04-06T09:18:07.120Z,1101.46
2023-04-06T09:19:07.054Z,1101.46
2023-04-06T09:20:10.062Z,1101.46
2023-04-06T09:21:10.009Z,1101.46
2023-04-06T09:22:07.000Z,1101.46
2023-04-06T09:23:06.979Z,1101.46
2023-04-06T09:24:07.286Z,1101.46
2023-04-06T09:25:06.983Z,1101.46
2023-04-06T09:26:07.031Z,1101.46
2023-04-06T09:27:06.990Z,1101.46
2023-04-06T09:28:06.958Z,1101.46
2023-04-06T09:29:06.957Z,1101.46
2023-04-06T09:30:06.894Z,1101.46
2023-04-06T09:31:06.899Z,1101.46
2023-04-06T09:32:06.956Z,1101.46
2023-04-06T09:33:06.897Z,1101.46
2023-04-06T09:34:07.293Z,1101.46
2023-04-06T09:35:06.829Z,1101.46
2023-04-06T09:36:06.806Z,1101.46
2023-04-06T09:37:06.813Z,1101.46
2023-04-06T09:38:06.849Z,1101.46
2023-04-06T09:39:06.780Z,1101.46
2023-04-06T09:40:09.767Z,1101.46
2023-04-06T09:41:09.758Z,1101.46
2023-04-06T09:42:06.726Z,1101.46
2023-04-06T09:43:06.714Z,1101.46
2023-04-06T09:44:07.028Z,1101.46
2023-04-06T09:45:06.696Z,1101.46
2023-04-06T09:46:06.677Z,1101.46
2023-04-06T09:47:06.717Z,1101.46
2023-04-06T09:48:06.681Z,1101.46
2023-04-06T09:49:06.874Z,1101.46
2023-04-06T09:50:06.694Z,1101.46
2023-04-06T09:51:06.614Z,1101.46
2023-04-06T09:52:06.605Z,1101.46
2023-04-06T09:53:06.598Z,1101.46
2023-04-06T09:54:06.724Z,1101.46
2023-04-06T09:55:06.575Z,1101.46
2023-04-06T09:56:06.607Z,1101.46
2023-04-06T09:57:06.571Z,1101.46
2023-04-06T09:58:06.543Z,1101.46
2023-04-06T09:59:06.629Z,1101.46
2023-04-06T10:00:09.494Z,1101.46
2023-04-06T10:01:09.543Z,1101.46
2023-04-06T10:02:06.472Z,1101.46
2023-04-06T10:03:09.122Z,1101.46
2023-04-06T10:04:06.597Z,1101.46
2023-04-06T10:05:06.423Z,1101.46
2023-04-06T10:06:06.420Z,1101.46
2023-04-06T10:07:06.427Z,1101.46
2023-04-06T10:08:06.383Z,1101.46
2023-04-06T10:09:06.430Z,1101.46
2023-04-06T10:10:06.352Z,1101.46
2023-04-06T10:11:06.373Z,1101.46
2023-04-06T10:12:06.350Z,1101.46
2023-04-06T10:13:06.322Z,1101.46
2023-04-06T10:14:06.606Z,1101.46
2023-04-06T10:15:06.304Z,1101.46
2023-04-06T10:16:06.281Z,1101.46
2023-04-06T10:17:06.266Z,1101.46
2023-04-06T10:18:06.300Z,1101.46
2023-04-06T10:19:06.218Z,1101.46
2023-04-06T10:20:09.242Z,1101.46
2023-04-06T10:21:09.201Z,1101.46
2023-04-06T10:22:06.227Z,1101.46
2023-04-06T10:23:06.177Z,1101.46
2023-04-06T10:24:06.252Z,1101.46
2023-04-06T10:25:06.170Z,1101.46
2023-04-06T10:26:06.126Z,1101.46
2023-04-06T10:27:06.137Z,1101.46
2023-04-06T10:28:06.107Z,1101.46
2023-04-06T10:29:06.142Z,1101.46
2023-04-06T10:30:06.134Z,1101.46
2023-04-06T10:31:06.054Z,1101.46
2023-04-06T10:32:06.144Z,1101.46
2023-04-06T10:33:06.057Z,1101.46
2023-04-06T10:34:06.087Z,1101.46
2023-04-06T10:35:06.056Z,1101.46
2023-04-06T10:36:05.991Z,1101.46
2023-04-06T10:37:05.975Z,1101.46
2023-04-06T10:38:05.971Z,1101.46
2023-04-06T10:39:05.952Z,1101.46
2023-04-06T10:40:08.992Z,1101.46
2023-04-06T10:41:08.925Z,1101.46
2023-04-06T10:42:05.916Z,1101.46
2023-04-06T10:43:05.908Z,1101.46
2023-04-06T10:44:05.937Z,1101.46
2023-04-06T10:45:05.871Z,1101.46
2023-04-06T10:46:05.944Z,1101.46
2023-04-06T10:47:05.836Z,1101.46
2023-04-06T10:48:05.857Z,1101.46
2023-04-06T10:49:05.815Z,1101.46
2023-04-06T10:50:05.794Z,1101.46
2023-04-06T10:51:05.836Z,1101.46
2023-04-06T10:52:05.777Z,1101.46
2023-04-06T10:53:05.760Z,1101.46
2023-04-06T10:54:05.753Z,1101.46
2023-04-06T10:55:05.735Z,1101.46
2023-04-06T10:56:05.713Z,1101.46
2023-04-06T10:57:05.740Z,1101.46
2023-04-06T10:58:05.702Z,1101.46
2023-04-06T10:59:05.717Z,1101.46
2023-04-06T11:00:10.731Z,1101.46
2023-04-06T11:01:08.663Z,1101.46
2023-04-06T11:02:05.652Z,1101.46
2023-04-06T11:03:05.709Z,1101.46
2023-04-06T11:04:05.726Z,1101.46
2023-04-06T11:05:05.598Z,1101.46
2023-04-06T11:06:05.581Z,1101.46
2023-04-06T11:07:05.592Z,1101.46
2023-04-06T11:08:05.545Z,1101.46
2023-04-06T11:09:05.545Z,1101.46
2023-04-06T11:10:15.573Z,1101.46
2023-04-06T11:11:06.538Z,1101.46
2023-04-06T11:12:05.561Z,1100.18
2023-04-06T11:13:05.491Z,1101.46
2023-04-06T11:14:05.474Z,1100.18
2023-04-06T11:15:05.467Z,1100.18
2023-04-06T11:16:05.437Z,1100.18
2023-04-06T11:17:05.497Z,1100.18
2023-04-06T11:18:05.527Z,1101.46
2023-04-06T11:19:05.435Z,1101.46
2023-04-06T11:20:08.395Z,1101.46
2023-04-06T11:21:08.380Z,1101.46
2023-04-06T11:22:05.364Z,1101.46
2023-04-06T11:23:05.349Z,1100.18
2023-04-06T11:24:05.373Z,1101.46
2023-04-06T11:25:05.328Z,1101.46
2023-04-06T11:26:05.304Z,1101.46
2023-04-06T11:27:05.299Z,1101.46
2023-04-06T11:28:05.270Z,1100.18
2023-04-06T11:29:05.273Z,1101.46
2023-04-06T11:30:05.315Z,1100.18
2023-04-06T11:31:05.300Z,1100.18
2023-04-06T11:32:05.237Z,1099.88
2023-04-06T11:33:05.254Z,1093.80
2023-04-06T11:34:05.198Z,1088.31
2023-04-06T11:35:05.183Z,1082.29
2023-04-06T11:36:05.212Z,1080.07
2023-04-06T11:37:05.197Z,1084.24
2023-04-06T11:38:05.139Z,1078.61
2023-04-06T11:39:05.128Z,1066.24
2023-04-06T11:40:08.134Z,1057.95
2023-04-06T11:41:08.112Z,1067.69
2023-04-06T11:42:07.575Z,1082.69
2023-04-06T11:43:05.071Z,1092.94
2023-04-06T11:44:05.059Z,1096.73
2023-04-06T11:45:05.067Z,1092.12
2023-04-06T11:46:05.065Z,1080.83
2023-04-06T11:47:05.093Z,1074.76
2023-04-06T11:48:05.052Z,1076.95
2023-04-06T11:49:05.028Z,1078.60
2023-04-06T11:50:04.989Z,1076.93
2023-04-06T11:51:04.973Z,1075.60
2023-04-06T11:52:04.953Z,1074.08
2023-04-06T11:53:05.001Z,1072.78
2023-04-06T11:54:04.932Z,1068.84
2023-04-06T11:55:04.911Z,1053.20
2023-04-06T11:56:04.908Z,1037.73
2023-04-06T11:57:04.892Z,1040.17
2023-04-06T11:58:04.897Z,1045.14
2023-04-06T11:59:04.933Z,1048.04
2023-04-06T12:00:07.844Z,1045.85
2023-04-06T12:01:07.845Z,1064.45
2023-04-06T12:02:04.808Z,1064.52
2023-04-06T12:03:04.883Z,1074.55
2023-04-06T12:04:04.940Z,1068.39
2023-04-06T12:05:05.479Z,1067.97